Portada
METAR-TAF:

METAR-TAF

Aeroports :

Aeroport de Nampula

Nampula, Moçambic

latitud: 15-06S, longitud: 039-17E, altitud: 438 m

Observació

L'informe es va fer fa 1 hora i 11 minuts, a les 10:00 UTC
Vent 11 kt del Nord/Nord-Est
Temperatura 32°C
Humitat 41%
Pressió 1017 hPa
Visibilitat 10 km o més
sense núvols per sota de 1500 mi sense presència de cumulonimbus.

METAR: FQNP 271000Z 02011KT CAVOK 32/17 Q1017

Hora: 13:11 (11:11 UTC)

Pronòstic

L'informe es va fer fa 7 hores i 11 minuts, a les 04:00 UTC
Pronòstic vàlid del 27 a les 06 UTC al 28 a les 12 UTC
Vent 8 kt del Oest/Nord-Oest
Visibilitat 10 km o més
Cel ennuvolat a una alçada de 1800 ft
Evolucionant progressivament
l' 27 a les 12 UTC al 27 a les 14 UTC
Vent 6 kt del Nord/Nord-Est
Evolucionant progressivament
l' 28 a les 06 UTC al 28 a les 08 UTC
Vent 10 kt del Sud-Est

TAF: FQNP 270400Z 2706/2812 30008KT 9999 BKN018 TX32/2713Z TN20/2803Z BECMG 2712/2714 03006KT BECMG 2806/2808 14010KT

Observacions i pronòstics meteorològics de més de 4000 aeroports (METAR i TAF).

Les estacions disponibles són els punts grocs i vermells al mapa.

Posi el ratolí al punt desitjat per veure el nom de l'estació.

Feu clic per veure les observacions i els pronòstics meteorològics.

Per canviar el mapa: feu clic els botons verds amb una creu de color negre per apropar; al botó verd amb un guió per allunyar la imatge; o en les fletxes verdes per a mapes adjacents.


METAR-TAF: